sensor_id;sensor_type;location;lat;lon;timestamp;P1;durP1;ratioP1;P2;durP2;ratioP2
21138;SDS011;10727;43.600;1.444;2023-06-10T00:00:47;3.33;;;1.30;;
21138;SDS011;10727;43.600;1.444;2023-06-10T00:03:54;4.00;;;1.30;;
21138;SDS011;10727;43.600;1.444;2023-06-10T00:06:59;5.55;;;1.40;;
21138;SDS011;10727;43.600;1.444;2023-06-10T00:10:04;5.90;;;1.60;;
21138;SDS011;10727;43.600;1.444;2023-06-10T00:13:11;8.50;;;1.50;;
21138;SDS011;10727;43.600;1.444;2023-06-10T00:16:16;6.35;;;1.38;;
21138;SDS011;10727;43.600;1.444;2023-06-10T00:19:22;5.32;;;1.60;;
21138;SDS011;10727;43.600;1.444;2023-06-10T00:22:28;4.35;;;1.67;;
21138;SDS011;10727;43.600;1.444;2023-06-10T00:25:35;6.55;;;1.52;;
21138;SDS011;10727;43.600;1.444;2023-06-10T00:28:41;2.95;;;1.17;;
21138;SDS011;10727;43.600;1.444;2023-06-10T00:31:48;4.40;;;1.60;;
21138;SDS011;10727;43.600;1.444;2023-06-10T00:34:53;9.13;;;1.52;;
21138;SDS011;10727;43.600;1.444;2023-06-10T00:37:58;3.53;;;1.23;;
21138;SDS011;10727;43.600;1.444;2023-06-10T00:41:03;5.50;;;2.00;;
21138;SDS011;10727;43.600;1.444;2023-06-10T00:44:10;2.65;;;1.17;;
21138;SDS011;10727;43.600;1.444;2023-06-10T00:47:14;4.60;;;1.30;;
21138;SDS011;10727;43.600;1.444;2023-06-10T00:50:19;1.95;;;1.10;;
21138;SDS011;10727;43.600;1.444;2023-06-10T00:53:25;7.22;;;1.50;;
21138;SDS011;10727;43.600;1.444;2023-06-10T00:56:30;6.72;;;1.38;;
21138;SDS011;10727;43.600;1.444;2023-06-10T00:59:37;4.28;;;1.50;;
21138;SDS011;10727;43.600;1.444;2023-06-10T01:02:43;6.65;;;1.30;;
21138;SDS011;10727;43.600;1.444;2023-06-10T01:05:49;3.90;;;1.20;;
21138;SDS011;10727;43.600;1.444;2023-06-10T01:08:56;4.72;;;1.30;;
21138;SDS011;10727;43.600;1.444;2023-06-10T01:12:05;6.25;;;1.58;;
21138;SDS011;10727;43.600;1.444;2023-06-10T01:15:13;3.08;;;1.27;;
21138;SDS011;10727;43.600;1.444;2023-06-10T01:18:18;5.05;;;1.40;;
21138;SDS011;10727;43.600;1.444;2023-06-10T01:21:25;2.95;;;1.30;;
21138;SDS011;10727;43.600;1.444;2023-06-10T01:24:31;3.78;;;1.52;;
21138;SDS011;10727;43.600;1.444;2023-06-10T01:27:37;4.03;;;1.60;;
21138;SDS011;10727;43.600;1.444;2023-06-10T01:30:47;6.05;;;1.48;;
21138;SDS011;10727;43.600;1.444;2023-06-10T01:33:53;3.25;;;1.20;;
21138;SDS011;10727;43.600;1.444;2023-06-10T01:37:02;3.10;;;1.25;;
21138;SDS011;10727;43.600;1.444;2023-06-10T01:40:08;4.72;;;1.33;;
21138;SDS011;10727;43.600;1.444;2023-06-10T01:43:13;6.50;;;1.48;;
21138;SDS011;10727;43.600;1.444;2023-06-10T01:46:19;9.15;;;1.40;;
21138;SDS011;10727;43.600;1.444;2023-06-10T01:49:24;6.15;;;1.33;;
21138;SDS011;10727;43.600;1.444;2023-06-10T01:52:31;3.45;;;1.40;;
21138;SDS011;10727;43.600;1.444;2023-06-10T01:55:38;2.58;;;1.13;;
21138;SDS011;10727;43.600;1.444;2023-06-10T01:58:43;3.85;;;1.48;;
21138;SDS011;10727;43.600;1.444;2023-06-10T02:01:48;5.07;;;1.35;;
21138;SDS011;10727;43.600;1.444;2023-06-10T02:04:53;3.13;;;0.95;;
21138;SDS011;10727;43.600;1.444;2023-06-10T02:08:00;5.20;;;1.48;;
21138;SDS011;10727;43.600;1.444;2023-06-10T02:11:05;4.50;;;1.30;;
21138;SDS011;10727;43.600;1.444;2023-06-10T02:14:10;4.38;;;1.65;;
21138;SDS011;10727;43.600;1.444;2023-06-10T02:17:16;5.78;;;1.35;;
21138;SDS011;10727;43.600;1.444;2023-06-10T02:20:21;3.65;;;1.20;;
21138;SDS011;10727;43.600;1.444;2023-06-10T02:23:27;3.17;;;1.00;;
21138;SDS011;10727;43.600;1.444;2023-06-10T02:26:32;6.63;;;1.27;;
21138;SDS011;10727;43.600;1.444;2023-06-10T02:29:38;6.43;;;1.60;;
21138;SDS011;10727;43.600;1.444;2023-06-10T02:32:45;4.55;;;1.13;;
21138;SDS011;10727;43.600;1.444;2023-06-10T02:35:52;3.17;;;1.25;;
21138;SDS011;10727;43.600;1.444;2023-06-10T02:39:00;8.98;;;1.20;;
21138;SDS011;10727;43.600;1.444;2023-06-10T02:42:07;5.60;;;1.40;;
21138;SDS011;10727;43.600;1.444;2023-06-10T02:45:13;3.92;;;1.40;;
21138;SDS011;10727;43.600;1.444;2023-06-10T02:48:20;4.13;;;1.50;;
21138;SDS011;10727;43.600;1.444;2023-06-10T02:51:25;5.68;;;1.55;;
21138;SDS011;10727;43.600;1.444;2023-06-10T02:54:37;3.97;;;1.50;;
21138;SDS011;10727;43.600;1.444;2023-06-10T02:57:45;2.65;;;1.30;;
21138;SDS011;10727;43.600;1.444;2023-06-10T03:00:50;4.70;;;1.50;;
21138;SDS011;10727;43.600;1.444;2023-06-10T03:03:55;5.22;;;1.63;;
21138;SDS011;10727;43.600;1.444;2023-06-10T03:07:02;5.40;;;1.70;;
21138;SDS011;10727;43.600;1.444;2023-06-10T03:10:13;10.50;;;1.88;;
21138;SDS011;10727;43.600;1.444;2023-06-10T03:13:18;4.97;;;1.33;;
21138;SDS011;10727;43.600;1.444;2023-06-10T03:16:24;7.00;;;1.67;;
21138;SDS011;10727;43.600;1.444;2023-06-10T03:19:30;2.53;;;1.33;;
21138;SDS011;10727;43.600;1.444;2023-06-10T03:22:36;8.32;;;1.90;;
21138;SDS011;10727;43.600;1.444;2023-06-10T03:25:46;7.90;;;1.50;;
21138;SDS011;10727;43.600;1.444;2023-06-10T03:28:54;5.55;;;1.42;;
21138;SDS011;10727;43.600;1.444;2023-06-10T03:32:01;3.28;;;1.38;;
21138;SDS011;10727;43.600;1.444;2023-06-10T03:35:07;8.75;;;1.63;;
21138;SDS011;10727;43.600;1.444;2023-06-10T03:38:13;7.20;;;1.50;;
21138;SDS011;10727;43.600;1.444;2023-06-10T03:41:21;5.20;;;1.58;;
21138;SDS011;10727;43.600;1.444;2023-06-10T03:44:28;5.00;;;1.50;;
21138;SDS011;10727;43.600;1.444;2023-06-10T03:47:33;5.05;;;1.58;;
21138;SDS011;10727;43.600;1.444;2023-06-10T03:50:40;5.65;;;1.60;;
21138;SDS011;10727;43.600;1.444;2023-06-10T03:53:45;5.40;;;1.50;;
21138;SDS011;10727;43.600;1.444;2023-06-10T03:56:52;4.93;;;1.45;;
21138;SDS011;10727;43.600;1.444;2023-06-10T03:59:57;4.47;;;1.70;;
21138;SDS011;10727;43.600;1.444;2023-06-10T04:03:02;4.95;;;1.35;;
21138;SDS011;10727;43.600;1.444;2023-06-10T04:06:15;7.47;;;1.63;;
21138;SDS011;10727;43.600;1.444;2023-06-10T04:09:20;4.63;;;1.40;;
21138;SDS011;10727;43.600;1.444;2023-06-10T04:12:26;4.93;;;1.73;;
21138;SDS011;10727;43.600;1.444;2023-06-10T04:15:31;9.15;;;1.60;;
21138;SDS011;10727;43.600;1.444;2023-06-10T04:18:40;7.50;;;1.83;;
21138;SDS011;10727;43.600;1.444;2023-06-10T04:21:47;4.47;;;1.33;;
21138;SDS011;10727;43.600;1.444;2023-06-10T04:24:52;5.25;;;1.38;;
21138;SDS011;10727;43.600;1.444;2023-06-10T04:27:59;4.38;;;1.40;;
21138;SDS011;10727;43.600;1.444;2023-06-10T04:31:04;2.97;;;1.30;;
21138;SDS011;10727;43.600;1.444;2023-06-10T04:34:09;3.00;;;1.48;;
21138;SDS011;10727;43.600;1.444;2023-06-10T04:37:15;5.15;;;1.50;;
21138;SDS011;10727;43.600;1.444;2023-06-10T04:40:21;6.43;;;1.80;;
21138;SDS011;10727;43.600;1.444;2023-06-10T04:43:28;4.05;;;1.40;;
21138;SDS011;10727;43.600;1.444;2023-06-10T04:46:36;7.00;;;1.75;;
21138;SDS011;10727;43.600;1.444;2023-06-10T04:49:41;4.45;;;1.70;;
21138;SDS011;10727;43.600;1.444;2023-06-10T04:52:47;5.40;;;1.90;;
21138;SDS011;10727;43.600;1.444;2023-06-10T04:55:53;6.65;;;2.63;;
21138;SDS011;10727;43.600;1.444;2023-06-10T04:58:59;2.58;;;1.42;;
21138;SDS011;10727;43.600;1.444;2023-06-10T05:02:04;4.18;;;1.80;;
21138;SDS011;10727;43.600;1.444;2023-06-10T05:05:09;2.90;;;1.50;;
21138;SDS011;10727;43.600;1.444;2023-06-10T05:08:14;13.23;;;2.15;;
21138;SDS011;10727;43.600;1.444;2023-06-10T05:11:19;12.23;;;1.92;;
21138;SDS011;10727;43.600;1.444;2023-06-10T05:14:26;4.65;;;1.80;;
21138;SDS011;10727;43.600;1.444;2023-06-10T05:17:31;8.70;;;2.08;;
21138;SDS011;10727;43.600;1.444;2023-06-10T05:20:37;6.47;;;1.77;;
21138;SDS011;10727;43.600;1.444;2023-06-10T05:23:42;5.32;;;1.50;;
21138;SDS011;10727;43.600;1.444;2023-06-10T05:26:48;7.13;;;1.40;;
21138;SDS011;10727;43.600;1.444;2023-06-10T05:29:54;6.72;;;1.58;;
21138;SDS011;10727;43.600;1.444;2023-06-10T05:33:06;7.95;;;2.10;;
21138;SDS011;10727;43.600;1.444;2023-06-10T05:36:45;6.30;;;1.40;;
21138;SDS011;10727;43.600;1.444;2023-06-10T05:40:24;6.40;;;1.48;;
21138;SDS011;10727;43.600;1.444;2023-06-10T05:44:03;3.83;;;1.55;;
21138;SDS011;10727;43.600;1.444;2023-06-10T05:47:52;3.90;;;1.50;;
21138;SDS011;10727;43.600;1.444;2023-06-10T05:51:30;6.05;;;1.63;;
21138;SDS011;10727;43.600;1.444;2023-06-10T05:55:09;6.35;;;1.50;;
21138;SDS011;10727;43.600;1.444;2023-06-10T05:58:48;9.48;;;1.63;;
21138;SDS011;10727;43.600;1.444;2023-06-10T06:02:27;3.03;;;1.30;;
21138;SDS011;10727;43.600;1.444;2023-06-10T06:06:08;3.80;;;1.40;;
21138;SDS011;10727;43.600;1.444;2023-06-10T06:09:46;3.35;;;1.77;;
21138;SDS011;10727;43.600;1.444;2023-06-10T06:13:25;3.47;;;1.38;;
21138;SDS011;10727;43.600;1.444;2023-06-10T06:17:04;3.10;;;1.48;;
21138;SDS011;10727;43.600;1.444;2023-06-10T06:20:43;4.38;;;1.25;;
21138;SDS011;10727;43.600;1.444;2023-06-10T06:24:24;4.13;;;1.52;;
21138;SDS011;10727;43.600;1.444;2023-06-10T06:28:02;5.10;;;1.95;;
21138;SDS011;10727;43.600;1.444;2023-06-10T06:31:41;3.90;;;1.67;;
21138;SDS011;10727;43.600;1.444;2023-06-10T06:35:20;3.42;;;1.45;;
21138;SDS011;10727;43.600;1.444;2023-06-10T06:39:00;4.82;;;1.52;;
21138;SDS011;10727;43.600;1.444;2023-06-10T06:42:41;2.70;;;1.45;;
21138;SDS011;10727;43.600;1.444;2023-06-10T06:46:29;4.53;;;1.30;;
21138;SDS011;10727;43.600;1.444;2023-06-10T06:50:09;2.80;;;1.13;;
21138;SDS011;10727;43.600;1.444;2023-06-10T06:53:47;6.00;;;1.67;;
21138;SDS011;10727;43.600;1.444;2023-06-10T06:57:28;11.38;;;2.13;;
21138;SDS011;10727;43.600;1.444;2023-06-10T07:01:09;7.80;;;3.10;;
21138;SDS011;10727;43.600;1.444;2023-06-10T07:04:47;6.95;;;2.35;;
21138;SDS011;10727;43.600;1.444;2023-06-10T07:08:26;6.50;;;2.38;;
21138;SDS011;10727;43.600;1.444;2023-06-10T07:12:06;5.32;;;1.73;;
21138;SDS011;10727;43.600;1.444;2023-06-10T07:15:44;8.45;;;2.00;;
21138;SDS011;10727;43.600;1.444;2023-06-10T07:19:25;5.72;;;1.85;;
21138;SDS011;10727;43.600;1.444;2023-06-10T07:23:03;6.75;;;2.15;;
21138;SDS011;10727;43.600;1.444;2023-06-10T07:26:42;6.47;;;1.45;;
21138;SDS011;10727;43.600;1.444;2023-06-10T07:30:21;6.45;;;1.90;;
21138;SDS011;10727;43.600;1.444;2023-06-10T07:34:00;4.90;;;1.95;;
21138;SDS011;10727;43.600;1.444;2023-06-10T07:37:41;7.30;;;1.70;;
21138;SDS011;10727;43.600;1.444;2023-06-10T07:41:19;4.95;;;1.70;;
21138;SDS011;10727;43.600;1.444;2023-06-10T07:44:58;3.78;;;1.70;;
21138;SDS011;10727;43.600;1.444;2023-06-10T07:48:37;2.85;;;1.65;;
21138;SDS011;10727;43.600;1.444;2023-06-10T07:52:16;6.35;;;1.70;;
21138;SDS011;10727;43.600;1.444;2023-06-10T07:55:57;7.20;;;2.05;;
21138;SDS011;10727;43.600;1.444;2023-06-10T07:59:35;3.90;;;1.70;;
21138;SDS011;10727;43.600;1.444;2023-06-10T08:03:14;6.43;;;2.00;;
21138;SDS011;10727;43.600;1.444;2023-06-10T08:06:53;6.40;;;1.90;;
21138;SDS011;10727;43.600;1.444;2023-06-10T08:10:32;2.53;;;1.67;;
21138;SDS011;10727;43.600;1.444;2023-06-10T08:14:13;3.67;;;1.38;;
21138;SDS011;10727;43.600;1.444;2023-06-10T08:17:51;4.20;;;1.85;;
21138;SDS011;10727;43.600;1.444;2023-06-10T08:21:30;3.63;;;1.50;;
21138;SDS011;10727;43.600;1.444;2023-06-10T08:25:09;6.13;;;1.75;;
21138;SDS011;10727;43.600;1.444;2023-06-10T08:28:48;6.53;;;1.88;;
21138;SDS011;10727;43.600;1.444;2023-06-10T08:32:29;4.53;;;1.52;;
21138;SDS011;10727;43.600;1.444;2023-06-10T08:36:07;6.03;;;2.22;;
21138;SDS011;10727;43.600;1.444;2023-06-10T08:39:46;11.02;;;6.35;;
21138;SDS011;10727;43.600;1.444;2023-06-10T08:43:26;19.52;;;14.25;;
21138;SDS011;10727;43.600;1.444;2023-06-10T08:47:11;19.83;;;13.45;;
21138;SDS011;10727;43.600;1.444;2023-06-10T08:50:52;15.70;;;10.05;;
21138;SDS011;10727;43.600;1.444;2023-06-10T08:54:31;22.60;;;15.57;;
21138;SDS011;10727;43.600;1.444;2023-06-10T08:58:10;15.73;;;10.45;;
21138;SDS011;10727;43.600;1.444;2023-06-10T09:01:50;11.75;;;8.80;;
21138;SDS011;10727;43.600;1.444;2023-06-10T09:05:30;14.10;;;9.55;;
21138;SDS011;10727;43.600;1.444;2023-06-10T09:09:12;10.73;;;6.55;;
21138;SDS011;10727;43.600;1.444;2023-06-10T09:12:51;8.50;;;6.28;;
21138;SDS011;10727;43.600;1.444;2023-06-10T09:16:29;11.88;;;7.90;;
21138;SDS011;10727;43.600;1.444;2023-06-10T09:20:09;7.55;;;5.70;;
21138;SDS011;10727;43.600;1.444;2023-06-10T09:23:47;13.20;;;10.48;;
21138;SDS011;10727;43.600;1.444;2023-06-10T09:27:29;9.02;;;5.38;;
21138;SDS011;10727;43.600;1.444;2023-06-10T09:31:07;5.63;;;2.80;;
21138;SDS011;10727;43.600;1.444;2023-06-10T09:34:48;9.32;;;3.33;;
21138;SDS011;10727;43.600;1.444;2023-06-10T09:38:29;10.88;;;4.28;;
21138;SDS011;10727;43.600;1.444;2023-06-10T09:42:17;16.60;;;5.15;;
21138;SDS011;10727;43.600;1.444;2023-06-10T09:45:57;4.30;;;2.60;;
21138;SDS011;10727;43.600;1.444;2023-06-10T09:49:37;9.07;;;4.25;;
21138;SDS011;10727;43.600;1.444;2023-06-10T09:53:16;5.32;;;2.67;;
21138;SDS011;10727;43.600;1.444;2023-06-10T09:56:55;8.45;;;3.08;;
21138;SDS011;10727;43.600;1.444;2023-06-10T10:00:34;7.15;;;3.20;;
21138;SDS011;10727;43.600;1.444;2023-06-10T10:04:19;5.20;;;2.28;;
21138;SDS011;10727;43.600;1.444;2023-06-10T10:08:00;3.30;;;2.40;;
21138;SDS011;10727;43.600;1.444;2023-06-10T10:11:39;5.55;;;2.50;;
21138;SDS011;10727;43.600;1.444;2023-06-10T10:15:19;9.65;;;3.90;;
21138;SDS011;10727;43.600;1.444;2023-06-10T10:18:59;5.20;;;3.60;;
21138;SDS011;10727;43.600;1.444;2023-06-10T10:22:41;6.13;;;2.30;;
21138;SDS011;10727;43.600;1.444;2023-06-10T10:26:23;3.97;;;2.10;;
21138;SDS011;10727;43.600;1.444;2023-06-10T10:30:04;4.85;;;2.95;;
21138;SDS011;10727;43.600;1.444;2023-06-10T10:33:46;6.05;;;2.17;;
21138;SDS011;10727;43.600;1.444;2023-06-10T10:37:26;5.18;;;3.35;;
21138;SDS011;10727;43.600;1.444;2023-06-10T10:41:07;5.40;;;2.65;;
21138;SDS011;10727;43.600;1.444;2023-06-10T10:44:45;2.55;;;1.65;;
21138;SDS011;10727;43.600;1.444;2023-06-10T10:48:25;3.20;;;1.70;;
21138;SDS011;10727;43.600;1.444;2023-06-10T10:52:05;4.40;;;2.00;;
21138;SDS011;10727;43.600;1.444;2023-06-10T10:55:57;3.25;;;1.77;;
21138;SDS011;10727;43.600;1.444;2023-06-10T10:59:44;3.80;;;1.45;;
21138;SDS011;10727;43.600;1.444;2023-06-10T11:03:27;3.65;;;1.80;;
21138;SDS011;10727;43.600;1.444;2023-06-10T11:07:06;2.80;;;1.58;;
21138;SDS011;10727;43.600;1.444;2023-06-10T11:10:50;4.53;;;2.00;;
21138;SDS011;10727;43.600;1.444;2023-06-10T11:14:30;2.38;;;1.80;;
21138;SDS011;10727;43.600;1.444;2023-06-10T11:22:15;4.00;;;1.67;;
21138;SDS011;10727;43.600;1.444;2023-06-10T11:26:08;3.80;;;1.58;;
21138;SDS011;10727;43.600;1.444;2023-06-10T11:29:54;2.47;;;1.60;;
21138;SDS011;10727;43.600;1.444;2023-06-10T11:33:33;3.33;;;2.22;;
21138;SDS011;10727;43.600;1.444;2023-06-10T11:37:13;2.67;;;2.00;;
21138;SDS011;10727;43.600;1.444;2023-06-10T11:40:53;2.80;;;1.10;;
21138;SDS011;10727;43.600;1.444;2023-06-10T11:44:32;3.83;;;2.20;;
21138;SDS011;10727;43.600;1.444;2023-06-10T11:48:11;2.15;;;1.58;;
21138;SDS011;10727;43.600;1.444;2023-06-10T11:51:51;3.30;;;1.80;;
21138;SDS011;10727;43.600;1.444;2023-06-10T11:55:25;6.18;;;2.40;;
21138;SDS011;10727;43.600;1.444;2023-06-10T11:58:30;3.15;;;2.05;;
21138;SDS011;10727;43.600;1.444;2023-06-10T12:01:36;3.05;;;1.67;;
21138;SDS011;10727;43.600;1.444;2023-06-10T12:04:43;2.70;;;1.92;;
21138;SDS011;10727;43.600;1.444;2023-06-10T12:07:48;3.55;;;1.70;;
21138;SDS011;10727;43.600;1.444;2023-06-10T12:10:55;1.40;;;0.90;;
21138;SDS011;10727;43.600;1.444;2023-06-10T12:14:00;4.13;;;1.17;;
21138;SDS011;10727;43.600;1.444;2023-06-10T12:17:06;2.83;;;1.20;;
21138;SDS011;10727;43.600;1.444;2023-06-10T12:20:23;4.32;;;1.30;;
21138;SDS011;10727;43.600;1.444;2023-06-10T12:23:29;2.33;;;0.90;;
21138;SDS011;10727;43.600;1.444;2023-06-10T12:26:40;3.38;;;1.85;;
21138;SDS011;10727;43.600;1.444;2023-06-10T12:29:50;1.58;;;1.30;;
21138;SDS011;10727;43.600;1.444;2023-06-10T12:32:58;2.33;;;1.30;;
21138;SDS011;10727;43.600;1.444;2023-06-10T12:36:03;5.20;;;1.70;;
21138;SDS011;10727;43.600;1.444;2023-06-10T12:39:08;2.95;;;1.80;;
21138;SDS011;10727;43.600;1.444;2023-06-10T12:42:15;2.05;;;1.67;;
21138;SDS011;10727;43.600;1.444;2023-06-10T12:45:26;2.17;;;1.02;;
21138;SDS011;10727;43.600;1.444;2023-06-10T12:48:32;1.63;;;1.23;;
21138;SDS011;10727;43.600;1.444;2023-06-10T12:51:37;2.45;;;1.25;;
21138;SDS011;10727;43.600;1.444;2023-06-10T12:54:42;2.95;;;1.20;;
21138;SDS011;10727;43.600;1.444;2023-06-10T12:57:49;2.55;;;0.88;;
21138;SDS011;10727;43.600;1.444;2023-06-10T13:00:55;3.15;;;1.40;;
21138;SDS011;10727;43.600;1.444;2023-06-10T13:04:02;1.90;;;1.45;;
21138;SDS011;10727;43.600;1.444;2023-06-10T13:07:10;2.42;;;1.25;;
21138;SDS011;10727;43.600;1.444;2023-06-10T13:10:15;2.05;;;1.88;;
21138;SDS011;10727;43.600;1.444;2023-06-10T13:13:22;1.85;;;1.63;;
21138;SDS011;10727;43.600;1.444;2023-06-10T13:16:28;2.72;;;1.58;;
21138;SDS011;10727;43.600;1.444;2023-06-10T13:19:33;2.65;;;1.90;;
21138;SDS011;10727;43.600;1.444;2023-06-10T13:22:38;2.15;;;1.60;;
21138;SDS011;10727;43.600;1.444;2023-06-10T13:25:43;2.25;;;1.70;;
21138;SDS011;10727;43.600;1.444;2023-06-10T13:28:49;1.92;;;1.60;;
21138;SDS011;10727;43.600;1.444;2023-06-10T13:31:55;3.45;;;1.48;;
21138;SDS011;10727;43.600;1.444;2023-06-10T13:35:01;3.33;;;1.40;;
21138;SDS011;10727;43.600;1.444;2023-06-10T13:38:06;3.13;;;1.70;;
21138;SDS011;10727;43.600;1.444;2023-06-10T13:41:11;3.47;;;2.25;;
21138;SDS011;10727;43.600;1.444;2023-06-10T13:44:17;1.30;;;1.20;;
21138;SDS011;10727;43.600;1.444;2023-06-10T13:47:22;2.70;;;1.60;;
21138;SDS011;10727;43.600;1.444;2023-06-10T13:50:28;1.75;;;1.50;;
21138;SDS011;10727;43.600;1.444;2023-06-10T13:53:33;2.20;;;1.50;;
21138;SDS011;10727;43.600;1.444;2023-06-10T13:56:38;2.45;;;1.60;;
21138;SDS011;10727;43.600;1.444;2023-06-10T13:59:44;12.02;;;6.75;;
21138;SDS011;10727;43.600;1.444;2023-06-10T14:02:50;2.60;;;1.63;;
21138;SDS011;10727;43.600;1.444;2023-06-10T14:05:55;11.25;;;3.95;;
21138;SDS011;10727;43.600;1.444;2023-06-10T14:09:00;2.78;;;1.95;;
21138;SDS011;10727;43.600;1.444;2023-06-10T14:12:05;7.88;;;5.20;;
21138;SDS011;10727;43.600;1.444;2023-06-10T14:15:12;2.80;;;2.00;;
21138;SDS011;10727;43.600;1.444;2023-06-10T14:18:17;3.10;;;1.85;;
21138;SDS011;10727;43.600;1.444;2023-06-10T14:21:23;2.67;;;1.52;;
21138;SDS011;10727;43.600;1.444;2023-06-10T14:24:28;3.00;;;1.60;;
21138;SDS011;10727;43.600;1.444;2023-06-10T14:27:34;2.28;;;1.77;;
21138;SDS011;10727;43.600;1.444;2023-06-10T14:30:40;1.33;;;0.93;;
21138;SDS011;10727;43.600;1.444;2023-06-10T14:33:46;1.02;;;0.93;;
21138;SDS011;10727;43.600;1.444;2023-06-10T14:36:50;1.88;;;1.50;;
21138;SDS011;10727;43.600;1.444;2023-06-10T14:39:55;1.98;;;1.00;;
21138;SDS011;10727;43.600;1.444;2023-06-10T14:43:00;2.35;;;1.08;;
21138;SDS011;10727;43.600;1.444;2023-06-10T14:46:13;2.40;;;1.20;;
21138;SDS011;10727;43.600;1.444;2023-06-10T14:49:18;0.70;;;0.70;;
21138;SDS011;10727;43.600;1.444;2023-06-10T14:52:23;3.63;;;1.10;;
21138;SDS011;10727;43.600;1.444;2023-06-10T14:55:29;2.75;;;1.10;;
21138;SDS011;10727;43.600;1.444;2023-06-10T14:58:33;1.88;;;1.17;;
21138;SDS011;10727;43.600;1.444;2023-06-10T15:01:40;0.93;;;0.90;;
21138;SDS011;10727;43.600;1.444;2023-06-10T15:04:45;0.90;;;0.80;;
21138;SDS011;10727;43.600;1.444;2023-06-10T15:07:50;2.90;;;1.10;;
21138;SDS011;10727;43.600;1.444;2023-06-10T15:10:56;83.28;;;68.47;;
21138;SDS011;10727;43.600;1.444;2023-06-10T15:14:01;7.03;;;5.93;;
21138;SDS011;10727;43.600;1.444;2023-06-10T15:17:08;17.55;;;13.32;;
21138;SDS011;10727;43.600;1.444;2023-06-10T15:20:13;73.82;;;52.55;;
21138;SDS011;10727;43.600;1.444;2023-06-10T15:23:18;106.50;;;72.28;;
21138;SDS011;10727;43.600;1.444;2023-06-10T15:26:23;31.13;;;24.10;;
21138;SDS011;10727;43.600;1.444;2023-06-10T15:29:28;45.00;;;34.40;;
21138;SDS011;10727;43.600;1.444;2023-06-10T15:32:34;60.38;;;44.88;;
21138;SDS011;10727;43.600;1.444;2023-06-10T15:35:39;17.95;;;11.60;;
21138;SDS011;10727;43.600;1.444;2023-06-10T15:38:44;84.93;;;59.83;;
21138;SDS011;10727;43.600;1.444;2023-06-10T15:41:50;17.67;;;13.20;;
21138;SDS011;10727;43.600;1.444;2023-06-10T15:44:55;24.63;;;17.83;;
21138;SDS011;10727;43.600;1.444;2023-06-10T15:48:02;11.23;;;8.63;;
21138;SDS011;10727;43.600;1.444;2023-06-10T15:51:07;121.10;;;81.03;;
21138;SDS011;10727;43.600;1.444;2023-06-10T15:54:12;187.02;;;126.95;;
21138;SDS011;10727;43.600;1.444;2023-06-10T15:57:17;22.08;;;17.02;;
21138;SDS011;10727;43.600;1.444;2023-06-10T16:00:23;137.73;;;98.47;;
21138;SDS011;10727;43.600;1.444;2023-06-10T16:03:29;194.57;;;132.80;;
21138;SDS011;10727;43.600;1.444;2023-06-10T16:06:34;36.78;;;26.20;;
21138;SDS011;10727;43.600;1.444;2023-06-10T16:09:40;93.43;;;66.57;;
21138;SDS011;10727;43.600;1.444;2023-06-10T16:12:45;173.38;;;121.82;;
21138;SDS011;10727;43.600;1.444;2023-06-10T16:15:50;95.85;;;66.78;;
21138;SDS011;10727;43.600;1.444;2023-06-10T16:18:56;54.28;;;37.38;;
21138;SDS011;10727;43.600;1.444;2023-06-10T16:22:02;173.90;;;117.47;;
21138;SDS011;10727;43.600;1.444;2023-06-10T16:25:08;58.53;;;40.97;;
21138;SDS011;10727;43.600;1.444;2023-06-10T16:28:13;167.38;;;104.25;;
21138;SDS011;10727;43.600;1.444;2023-06-10T16:31:18;143.77;;;98.78;;
21138;SDS011;10727;43.600;1.444;2023-06-10T16:34:24;53.53;;;34.70;;
21138;SDS011;10727;43.600;1.444;2023-06-10T16:37:29;91.25;;;59.00;;
21138;SDS011;10727;43.600;1.444;2023-06-10T16:40:34;35.63;;;22.27;;
21138;SDS011;10727;43.600;1.444;2023-06-10T16:43:39;26.70;;;15.07;;
21138;SDS011;10727;43.600;1.444;2023-06-10T16:46:44;12.85;;;7.85;;
21138;SDS011;10727;43.600;1.444;2023-06-10T16:49:51;15.60;;;9.90;;
21138;SDS011;10727;43.600;1.444;2023-06-10T16:52:56;13.82;;;7.07;;
21138;SDS011;10727;43.600;1.444;2023-06-10T16:56:01;11.40;;;6.88;;
21138;SDS011;10727;43.600;1.444;2023-06-10T16:59:06;8.68;;;5.57;;
21138;SDS011;10727;43.600;1.444;2023-06-10T17:02:12;10.18;;;5.40;;
21138;SDS011;10727;43.600;1.444;2023-06-10T17:05:19;7.32;;;5.18;;
21138;SDS011;10727;43.600;1.444;2023-06-10T17:08:23;6.93;;;4.45;;
21138;SDS011;10727;43.600;1.444;2023-06-10T17:11:28;3.83;;;2.90;;
21138;SDS011;10727;43.600;1.444;2023-06-10T17:14:34;6.55;;;4.47;;
21138;SDS011;10727;43.600;1.444;2023-06-10T17:17:40;5.45;;;3.22;;
21138;SDS011;10727;43.600;1.444;2023-06-10T17:20:47;4.50;;;3.38;;
21138;SDS011;10727;43.600;1.444;2023-06-10T17:23:52;4.35;;;3.30;;
21138;SDS011;10727;43.600;1.444;2023-06-10T17:26:57;4.50;;;2.45;;
21138;SDS011;10727;43.600;1.444;2023-06-10T17:30:03;4.82;;;3.30;;
21138;SDS011;10727;43.600;1.444;2023-06-10T17:33:08;7.07;;;4.15;;
21138;SDS011;10727;43.600;1.444;2023-06-10T17:36:14;5.63;;;3.50;;
21138;SDS011;10727;43.600;1.444;2023-06-10T17:39:20;19.60;;;5.95;;
21138;SDS011;10727;43.600;1.444;2023-06-10T17:42:26;12.90;;;6.10;;
21138;SDS011;10727;43.600;1.444;2023-06-10T17:45:31;10.95;;;6.35;;
21138;SDS011;10727;43.600;1.444;2023-06-10T17:48:36;5.93;;;3.97;;
21138;SDS011;10727;43.600;1.444;2023-06-10T17:51:42;5.00;;;3.78;;
21138;SDS011;10727;43.600;1.444;2023-06-10T17:54:47;10.52;;;7.38;;
21138;SDS011;10727;43.600;1.444;2023-06-10T17:57:52;10.50;;;7.60;;
21138;SDS011;10727;43.600;1.444;2023-06-10T18:00:57;6.55;;;4.15;;
21138;SDS011;10727;43.600;1.444;2023-06-10T18:04:03;4.93;;;3.22;;
21138;SDS011;10727;43.600;1.444;2023-06-10T18:07:10;10.77;;;6.80;;
21138;SDS011;10727;43.600;1.444;2023-06-10T18:10:15;4.15;;;3.10;;
21138;SDS011;10727;43.600;1.444;2023-06-10T18:13:20;5.78;;;2.90;;
21138;SDS011;10727;43.600;1.444;2023-06-10T18:16:25;6.28;;;2.72;;
21138;SDS011;10727;43.600;1.444;2023-06-10T18:19:31;6.15;;;2.42;;
21138;SDS011;10727;43.600;1.444;2023-06-10T18:22:38;4.80;;;2.28;;
21138;SDS011;10727;43.600;1.444;2023-06-10T18:25:43;3.28;;;2.53;;
21138;SDS011;10727;43.600;1.444;2023-06-10T18:28:48;3.15;;;2.20;;
21138;SDS011;10727;43.600;1.444;2023-06-10T18:31:53;3.00;;;1.70;;
21138;SDS011;10727;43.600;1.444;2023-06-10T18:34:58;3.95;;;2.95;;
21138;SDS011;10727;43.600;1.444;2023-06-10T18:38:05;3.22;;;2.50;;
21138;SDS011;10727;43.600;1.444;2023-06-10T18:41:10;5.53;;;2.30;;
21138;SDS011;10727;43.600;1.444;2023-06-10T18:44:15;18.17;;;6.40;;
21138;SDS011;10727;43.600;1.444;2023-06-10T18:47:20;17.17;;;7.43;;
21138;SDS011;10727;43.600;1.444;2023-06-10T18:50:25;11.80;;;6.40;;
21138;SDS011;10727;43.600;1.444;2023-06-10T18:53:32;18.88;;;11.85;;
21138;SDS011;10727;43.600;1.444;2023-06-10T18:56:37;12.45;;;7.35;;
21138;SDS011;10727;43.600;1.444;2023-06-10T18:59:42;12.70;;;7.50;;
21138;SDS011;10727;43.600;1.444;2023-06-10T19:02:47;16.33;;;6.63;;
21138;SDS011;10727;43.600;1.444;2023-06-10T19:05:52;15.55;;;8.50;;
21138;SDS011;10727;43.600;1.444;2023-06-10T19:08:59;66.75;;;30.95;;
21138;SDS011;10727;43.600;1.444;2023-06-10T19:12:04;17.08;;;9.13;;
21138;SDS011;10727;43.600;1.444;2023-06-10T19:15:10;31.50;;;13.60;;
21138;SDS011;10727;43.600;1.444;2023-06-10T19:18:15;39.53;;;18.33;;
21138;SDS011;10727;43.600;1.444;2023-06-10T19:21:20;24.63;;;13.65;;
21138;SDS011;10727;43.600;1.444;2023-06-10T19:24:27;26.38;;;13.32;;
21138;SDS011;10727;43.600;1.444;2023-06-10T19:27:33;96.55;;;35.33;;
21138;SDS011;10727;43.600;1.444;2023-06-10T19:30:38;39.80;;;19.55;;
21138;SDS011;10727;43.600;1.444;2023-06-10T19:33:42;44.30;;;20.90;;
21138;SDS011;10727;43.600;1.444;2023-06-10T19:36:48;50.35;;;26.73;;